sensor_id;sensor_type;location;lat;lon;timestamp;pressure;altitude;pressure_sealevel;temperature;humidity
41044;BME280;51680;49.806;18.774;2023-05-09T00:02:16;98304.56;;;7.11;75.19
41044;BME280;51680;49.806;18.774;2023-05-09T00:05:18;98306.09;;;7.17;74.77
41044;BME280;51680;49.806;18.774;2023-05-09T00:08:20;98301.84;;;7.14;75.00
41044;BME280;51680;49.806;18.774;2023-05-09T00:11:22;98310.56;;;7.13;75.26
41044;BME280;51680;49.806;18.774;2023-05-09T00:14:25;98303.78;;;7.09;75.56
41044;BME280;51680;49.806;18.774;2023-05-09T00:17:27;98305.22;;;7.16;74.92
41044;BME280;51680;49.806;18.774;2023-05-09T00:20:29;98303.09;;;7.27;74.32
41044;BME280;51680;49.806;18.774;2023-05-09T00:23:33;98292.81;;;7.24;74.29
41044;BME280;51680;49.806;18.774;2023-05-09T00:26:35;98292.97;;;7.20;74.62
41044;BME280;51680;49.806;18.774;2023-05-09T00:29:38;98293.47;;;7.06;75.11
41044;BME280;51680;49.806;18.774;2023-05-09T00:32:40;98286.88;;;6.98;75.34
41044;BME280;51680;49.806;18.774;2023-05-09T00:35:41;98285.91;;;7.00;75.24
41044;BME280;51680;49.806;18.774;2023-05-09T00:38:43;98284.69;;;7.10;74.61
41044;BME280;51680;49.806;18.774;2023-05-09T00:41:45;98284.50;;;7.15;74.53
41044;BME280;51680;49.806;18.774;2023-05-09T00:44:48;98266.13;;;7.21;74.14
41044;BME280;51680;49.806;18.774;2023-05-09T00:47:50;98276.00;;;7.11;74.48
41044;BME280;51680;49.806;18.774;2023-05-09T00:50:52;98270.22;;;7.03;74.66
41044;BME280;51680;49.806;18.774;2023-05-09T00:53:53;98265.94;;;7.02;74.83
41044;BME280;51680;49.806;18.774;2023-05-09T00:56:55;98273.16;;;6.94;75.63
41044;BME280;51680;49.806;18.774;2023-05-09T00:59:59;98276.38;;;7.01;75.09
41044;BME280;51680;49.806;18.774;2023-05-09T01:03:01;98268.47;;;7.04;75.17
41044;BME280;51680;49.806;18.774;2023-05-09T01:06:06;98259.84;;;7.03;75.17
41044;BME280;51680;49.806;18.774;2023-05-09T01:09:18;98262.78;;;6.94;75.46
41044;BME280;51680;49.806;18.774;2023-05-09T01:12:26;98258.81;;;6.84;75.57
41044;BME280;51680;49.806;18.774;2023-05-09T01:15:38;98263.53;;;6.73;76.32
41044;BME280;51680;49.806;18.774;2023-05-09T01:18:44;98257.69;;;6.67;76.55
41044;BME280;51680;49.806;18.774;2023-05-09T01:21:47;98260.50;;;6.61;76.63
41044;BME280;51680;49.806;18.774;2023-05-09T01:25:19;98256.88;;;6.66;77.31
41044;BME280;51680;49.806;18.774;2023-05-09T01:28:35;98263.75;;;6.67;76.83
41044;BME280;51680;49.806;18.774;2023-05-09T01:31:45;98261.41;;;6.60;77.17
41044;BME280;51680;49.806;18.774;2023-05-09T01:34:51;98262.25;;;6.60;76.49
41044;BME280;51680;49.806;18.774;2023-05-09T01:37:53;98251.56;;;6.69;76.06
41044;BME280;51680;49.806;18.774;2023-05-09T01:40:56;98249.53;;;6.53;77.05
41044;BME280;51680;49.806;18.774;2023-05-09T01:44:01;98247.34;;;6.42;77.62
41044;BME280;51680;49.806;18.774;2023-05-09T01:47:07;98240.34;;;6.44;77.15
41044;BME280;51680;49.806;18.774;2023-05-09T01:50:11;98240.97;;;6.51;76.91
41044;BME280;51680;49.806;18.774;2023-05-09T01:53:13;98234.75;;;6.56;77.00
41044;BME280;51680;49.806;18.774;2023-05-09T01:56:18;98230.66;;;6.49;77.13
41044;BME280;51680;49.806;18.774;2023-05-09T01:59:21;98233.94;;;6.54;76.96
41044;BME280;51680;49.806;18.774;2023-05-09T02:02:25;98237.06;;;6.39;77.83
41044;BME280;51680;49.806;18.774;2023-05-09T02:05:28;98233.69;;;6.37;77.92
41044;BME280;51680;49.806;18.774;2023-05-09T02:08:30;98240.59;;;6.37;77.54
41044;BME280;51680;49.806;18.774;2023-05-09T02:11:34;98239.75;;;6.36;77.37
41044;BME280;51680;49.806;18.774;2023-05-09T02:14:35;98243.25;;;6.35;77.63
41044;BME280;51680;49.806;18.774;2023-05-09T02:17:39;98231.75;;;6.18;78.57
41044;BME280;51680;49.806;18.774;2023-05-09T02:20:42;98232.66;;;6.17;79.03
41044;BME280;51680;49.806;18.774;2023-05-09T02:23:44;98237.19;;;6.10;79.45
41044;BME280;51680;49.806;18.774;2023-05-09T02:26:47;98243.91;;;6.16;78.69
41044;BME280;51680;49.806;18.774;2023-05-09T02:29:50;98229.16;;;6.18;78.37
41044;BME280;51680;49.806;18.774;2023-05-09T02:33:01;98220.41;;;6.20;78.55
41044;BME280;51680;49.806;18.774;2023-05-09T02:36:04;98229.06;;;6.21;78.39
41044;BME280;51680;49.806;18.774;2023-05-09T02:39:07;98235.97;;;6.20;78.26
41044;BME280;51680;49.806;18.774;2023-05-09T02:42:10;98223.91;;;6.19;78.38
41044;BME280;51680;49.806;18.774;2023-05-09T02:45:12;98218.63;;;6.22;78.41
41044;BME280;51680;49.806;18.774;2023-05-09T02:48:15;98214.72;;;6.35;77.69
41044;BME280;51680;49.806;18.774;2023-05-09T02:51:17;98227.13;;;6.27;79.00
41044;BME280;51680;49.806;18.774;2023-05-09T02:54:19;98230.97;;;6.40;77.98
41044;BME280;51680;49.806;18.774;2023-05-09T02:57:22;98225.50;;;6.48;77.76
41044;BME280;51680;49.806;18.774;2023-05-09T03:00:23;98224.56;;;6.50;77.21
41044;BME280;51680;49.806;18.774;2023-05-09T03:03:27;98226.31;;;6.50;77.90
41044;BME280;51680;49.806;18.774;2023-05-09T03:06:29;98228.22;;;6.45;78.16
41044;BME280;51680;49.806;18.774;2023-05-09T03:09:31;98220.31;;;6.48;77.70
41044;BME280;51680;49.806;18.774;2023-05-09T03:12:32;98226.59;;;6.42;77.61
41044;BME280;51680;49.806;18.774;2023-05-09T03:15:34;98224.69;;;6.47;77.76
41044;BME280;51680;49.806;18.774;2023-05-09T03:18:38;98238.09;;;6.34;78.25
41044;BME280;51680;49.806;18.774;2023-05-09T03:21:40;98231.66;;;6.21;79.12
41044;BME280;51680;49.806;18.774;2023-05-09T03:24:42;98223.28;;;6.13;79.93
41044;BME280;51680;49.806;18.774;2023-05-09T03:27:44;98227.50;;;6.15;79.69
41044;BME280;51680;49.806;18.774;2023-05-09T03:30:49;98223.09;;;6.17;79.31
41044;BME280;51680;49.806;18.774;2023-05-09T03:33:57;98221.41;;;6.16;79.70
41044;BME280;51680;49.806;18.774;2023-05-09T03:36:59;98223.44;;;6.08;80.99
41044;BME280;51680;49.806;18.774;2023-05-09T03:40:04;98219.63;;;6.18;79.39
41044;BME280;51680;49.806;18.774;2023-05-09T03:43:12;98221.81;;;6.30;79.20
41044;BME280;51680;49.806;18.774;2023-05-09T03:46:14;98210.03;;;6.46;78.93
41044;BME280;51680;49.806;18.774;2023-05-09T03:49:20;98215.38;;;6.66;77.82
41044;BME280;51680;49.806;18.774;2023-05-09T03:52:26;98220.00;;;6.81;77.51
41044;BME280;51680;49.806;18.774;2023-05-09T03:55:28;98213.06;;;7.05;77.37
41044;BME280;51680;49.806;18.774;2023-05-09T03:58:30;98214.59;;;7.33;76.30
41044;BME280;51680;49.806;18.774;2023-05-09T04:01:33;98213.59;;;7.59;75.44
41044;BME280;51680;49.806;18.774;2023-05-09T04:04:39;98214.06;;;7.90;75.06
41044;BME280;51680;49.806;18.774;2023-05-09T04:07:41;98210.72;;;8.08;74.15
41044;BME280;51680;49.806;18.774;2023-05-09T04:10:43;98209.25;;;8.22;73.52
41044;BME280;51680;49.806;18.774;2023-05-09T04:13:45;98212.41;;;8.50;73.10
41044;BME280;51680;49.806;18.774;2023-05-09T04:16:57;98215.16;;;8.47;72.26
41044;BME280;51680;49.806;18.774;2023-05-09T04:20:01;98215.53;;;8.38;72.61
41044;BME280;51680;49.806;18.774;2023-05-09T04:23:02;98205.91;;;8.40;72.43
41044;BME280;51680;49.806;18.774;2023-05-09T04:26:04;98206.16;;;8.54;72.31
41044;BME280;51680;49.806;18.774;2023-05-09T04:29:07;98206.53;;;8.65;71.76
41044;BME280;51680;49.806;18.774;2023-05-09T04:32:09;98203.81;;;8.68;71.84
41044;BME280;51680;49.806;18.774;2023-05-09T04:35:13;98203.81;;;8.68;71.85
41044;BME280;51680;49.806;18.774;2023-05-09T04:38:19;98193.13;;;8.74;71.35
41044;BME280;51680;49.806;18.774;2023-05-09T04:41:21;98200.75;;;8.79;71.12
41044;BME280;51680;49.806;18.774;2023-05-09T04:44:23;98202.38;;;8.81;71.38
41044;BME280;51680;49.806;18.774;2023-05-09T04:47:25;98196.97;;;9.04;70.84
41044;BME280;51680;49.806;18.774;2023-05-09T04:50:28;98194.31;;;9.43;70.17
41044;BME280;51680;49.806;18.774;2023-05-09T04:53:30;98194.66;;;9.35;69.51
41044;BME280;51680;49.806;18.774;2023-05-09T04:56:32;98202.25;;;9.58;69.51
41044;BME280;51680;49.806;18.774;2023-05-09T04:59:35;98188.69;;;10.23;68.04
41044;BME280;51680;49.806;18.774;2023-05-09T05:02:37;98186.88;;;10.74;67.74
41044;BME280;51680;49.806;18.774;2023-05-09T05:05:41;98192.06;;;11.39;65.83
41044;BME280;51680;49.806;18.774;2023-05-09T05:08:42;98182.28;;;11.89;65.19
41044;BME280;51680;49.806;18.774;2023-05-09T05:11:45;98187.41;;;12.06;63.62
41044;BME280;51680;49.806;18.774;2023-05-09T05:14:47;98184.38;;;12.57;62.98
41044;BME280;51680;49.806;18.774;2023-05-09T05:17:53;98179.72;;;12.90;61.62
41044;BME280;51680;49.806;18.774;2023-05-09T05:21:00;98173.75;;;13.30;60.50
41044;BME280;51680;49.806;18.774;2023-05-09T05:24:03;98173.03;;;13.69;59.77
41044;BME280;51680;49.806;18.774;2023-05-09T05:27:05;98171.50;;;13.79;59.01
41044;BME280;51680;49.806;18.774;2023-05-09T05:30:09;98181.22;;;12.80;58.80
41044;BME280;51680;49.806;18.774;2023-05-09T05:33:11;98177.16;;;13.04;59.97
41044;BME280;51680;49.806;18.774;2023-05-09T05:36:14;98186.00;;;13.58;59.08
41044;BME280;51680;49.806;18.774;2023-05-09T05:39:16;98175.69;;;14.08;58.71
41044;BME280;51680;49.806;18.774;2023-05-09T05:42:18;98164.41;;;14.59;57.42
41044;BME280;51680;49.806;18.774;2023-05-09T05:45:20;98166.94;;;14.60;57.06
41044;BME280;51680;49.806;18.774;2023-05-09T05:48:25;98172.03;;;14.10;56.72
41044;BME280;51680;49.806;18.774;2023-05-09T05:51:30;98175.97;;;13.91;55.64
41044;BME280;51680;49.806;18.774;2023-05-09T05:54:32;98168.78;;;14.33;56.74
41044;BME280;51680;49.806;18.774;2023-05-09T05:57:34;98170.81;;;14.16;56.83
41044;BME280;51680;49.806;18.774;2023-05-09T06:00:39;98161.94;;;14.43;55.68
41044;BME280;51680;49.806;18.774;2023-05-09T06:03:42;98164.38;;;14.46;56.04
41044;BME280;51680;49.806;18.774;2023-05-09T06:06:45;98162.50;;;14.61;55.22
41044;BME280;51680;49.806;18.774;2023-05-09T06:09:47;98167.13;;;15.07;55.02
41044;BME280;51680;49.806;18.774;2023-05-09T06:12:49;98156.50;;;15.46;54.05
41044;BME280;51680;49.806;18.774;2023-05-09T06:15:54;98152.97;;;15.58;52.70
41044;BME280;51680;49.806;18.774;2023-05-09T06:18:55;98157.97;;;15.74;53.60
41044;BME280;51680;49.806;18.774;2023-05-09T06:21:59;98145.03;;;15.94;52.36
41044;BME280;51680;49.806;18.774;2023-05-09T06:25:00;98143.91;;;16.09;51.92
41044;BME280;51680;49.806;18.774;2023-05-09T06:28:03;98147.00;;;16.38;52.29
41044;BME280;51680;49.806;18.774;2023-05-09T06:31:05;98130.31;;;16.61;50.51
41044;BME280;51680;49.806;18.774;2023-05-09T06:34:07;98131.28;;;16.36;50.34
41044;BME280;51680;49.806;18.774;2023-05-09T06:37:10;98139.75;;;15.47;49.97
41044;BME280;51680;49.806;18.774;2023-05-09T06:40:12;98134.00;;;14.92;52.32
41044;BME280;51680;49.806;18.774;2023-05-09T06:43:13;98137.34;;;15.19;51.18
41044;BME280;51680;49.806;18.774;2023-05-09T06:46:15;98128.66;;;14.81;51.24
41044;BME280;51680;49.806;18.774;2023-05-09T06:49:17;98141.56;;;14.08;52.29
41044;BME280;51680;49.806;18.774;2023-05-09T06:52:20;98132.97;;;14.06;53.29
41044;BME280;51680;49.806;18.774;2023-05-09T06:55:22;98140.69;;;13.95;53.81
41044;BME280;51680;49.806;18.774;2023-05-09T06:58:23;98138.41;;;13.76;52.70
41044;BME280;51680;49.806;18.774;2023-05-09T07:01:26;98131.94;;;13.55;52.07
41044;BME280;51680;49.806;18.774;2023-05-09T07:04:28;98116.28;;;14.19;53.23
41044;BME280;51680;49.806;18.774;2023-05-09T07:07:31;98120.97;;;14.28;52.28
41044;BME280;51680;49.806;18.774;2023-05-09T07:10:37;98117.00;;;14.85;51.39
41044;BME280;51680;49.806;18.774;2023-05-09T07:13:39;98128.66;;;14.56;49.68
41044;BME280;51680;49.806;18.774;2023-05-09T07:16:41;98120.53;;;14.22;52.48
41044;BME280;51680;49.806;18.774;2023-05-09T07:19:42;98113.72;;;14.44;51.81
41044;BME280;51680;49.806;18.774;2023-05-09T07:22:45;98108.34;;;14.83;50.67
41044;BME280;51680;49.806;18.774;2023-05-09T07:25:47;98111.81;;;14.96;50.00
41044;BME280;51680;49.806;18.774;2023-05-09T07:28:49;98114.91;;;14.14;49.92
41044;BME280;51680;49.806;18.774;2023-05-09T07:31:51;98106.59;;;14.34;51.55
41044;BME280;51680;49.806;18.774;2023-05-09T07:34:52;98101.22;;;14.85;51.92
41044;BME280;51680;49.806;18.774;2023-05-09T07:37:55;98101.63;;;14.92;51.34
41044;BME280;51680;49.806;18.774;2023-05-09T07:40:57;98114.78;;;14.67;49.23
41044;BME280;51680;49.806;18.774;2023-05-09T07:43:59;98111.84;;;14.46;50.92
41044;BME280;51680;49.806;18.774;2023-05-09T07:47:01;98104.03;;;14.82;50.80
41044;BME280;51680;49.806;18.774;2023-05-09T07:50:05;98094.91;;;15.49;49.70
41044;BME280;51680;49.806;18.774;2023-05-09T07:53:08;98097.94;;;14.94;48.50
41044;BME280;51680;49.806;18.774;2023-05-09T07:56:10;98089.81;;;14.97;50.16
41044;BME280;51680;49.806;18.774;2023-05-09T07:59:12;98088.22;;;15.07;48.88
41044;BME280;51680;49.806;18.774;2023-05-09T08:02:14;98087.72;;;15.15;48.26
41044;BME280;51680;49.806;18.774;2023-05-09T08:05:16;98078.91;;;15.86;49.75
41044;BME280;51680;49.806;18.774;2023-05-09T08:08:20;98080.38;;;16.81;48.94
41044;BME280;51680;49.806;18.774;2023-05-09T08:11:21;98072.19;;;17.17;47.46
41044;BME280;51680;49.806;18.774;2023-05-09T08:14:23;98088.63;;;16.77;45.55
41044;BME280;51680;49.806;18.774;2023-05-09T08:17:25;98076.16;;;16.57;46.48
41044;BME280;51680;49.806;18.774;2023-05-09T08:20:26;98081.94;;;15.69;47.41
41044;BME280;51680;49.806;18.774;2023-05-09T08:23:33;98080.31;;;15.79;49.17
41044;BME280;51680;49.806;18.774;2023-05-09T08:26:34;98077.31;;;16.53;47.85
41044;BME280;51680;49.806;18.774;2023-05-09T08:29:36;98078.44;;;16.83;46.40
41044;BME280;51680;49.806;18.774;2023-05-09T08:32:38;98075.78;;;16.50;47.17
41044;BME280;51680;49.806;18.774;2023-05-09T08:35:40;98077.22;;;16.98;46.95
41044;BME280;51680;49.806;18.774;2023-05-09T08:38:43;98054.81;;;17.68;45.63
41044;BME280;51680;49.806;18.774;2023-05-09T08:41:45;98065.34;;;18.31;44.52
41044;BME280;51680;49.806;18.774;2023-05-09T08:44:47;98059.09;;;18.53;44.96
41044;BME280;51680;49.806;18.774;2023-05-09T08:47:49;98057.28;;;18.12;43.67
41044;BME280;51680;49.806;18.774;2023-05-09T08:50:51;98061.94;;;17.57;43.31
41044;BME280;51680;49.806;18.774;2023-05-09T08:53:55;98048.41;;;17.50;45.33
41044;BME280;51680;49.806;18.774;2023-05-09T08:56:57;98070.00;;;17.22;45.48
41044;BME280;51680;49.806;18.774;2023-05-09T08:59:59;98055.63;;;17.26;44.10
41044;BME280;51680;49.806;18.774;2023-05-09T09:03:01;98054.53;;;17.29;43.26
41044;BME280;51680;49.806;18.774;2023-05-09T09:06:05;98053.78;;;17.91;43.80
41044;BME280;51680;49.806;18.774;2023-05-09T09:09:10;98045.22;;;18.61;42.38
41044;BME280;51680;49.806;18.774;2023-05-09T09:12:14;98038.84;;;19.33;42.22
41044;BME280;51680;49.806;18.774;2023-05-09T09:15:18;98037.22;;;19.98;41.56
41044;BME280;51680;49.806;18.774;2023-05-09T09:18:23;98042.13;;;20.22;41.33
41044;BME280;51680;49.806;18.774;2023-05-09T09:21:29;98035.19;;;20.67;40.54
41044;BME280;51680;49.806;18.774;2023-05-09T09:24:34;98036.25;;;20.93;38.22
41044;BME280;51680;49.806;18.774;2023-05-09T09:27:36;98019.66;;;20.07;35.31
41044;BME280;51680;49.806;18.774;2023-05-09T09:30:42;98019.25;;;19.83;39.05
41044;BME280;51680;49.806;18.774;2023-05-09T09:33:44;98027.03;;;20.32;41.18
41044;BME280;51680;49.806;18.774;2023-05-09T09:36:46;98021.75;;;20.78;39.65
41044;BME280;51680;49.806;18.774;2023-05-09T09:39:55;98028.44;;;20.26;35.64
41044;BME280;51680;49.806;18.774;2023-05-09T09:42:57;98030.94;;;19.61;40.68
41044;BME280;51680;49.806;18.774;2023-05-09T09:46:00;98019.19;;;18.56;39.80
41044;BME280;51680;49.806;18.774;2023-05-09T09:49:02;98018.84;;;18.80;41.08
41044;BME280;51680;49.806;18.774;2023-05-09T09:52:03;98014.19;;;19.61;40.49
41044;BME280;51680;49.806;18.774;2023-05-09T09:55:07;98018.44;;;20.57;40.14
41044;BME280;51680;49.806;18.774;2023-05-09T09:58:15;98003.31;;;20.67;38.22
41044;BME280;51680;49.806;18.774;2023-05-09T10:01:17;98005.25;;;21.11;38.64
41044;BME280;51680;49.806;18.774;2023-05-09T10:04:20;98001.06;;;21.53;37.63
41044;BME280;51680;49.806;18.774;2023-05-09T10:07:21;97989.13;;;21.84;37.15
41044;BME280;51680;49.806;18.774;2023-05-09T10:10:27;97993.84;;;21.28;35.06
41044;BME280;51680;49.806;18.774;2023-05-09T10:13:29;98003.16;;;20.78;38.26
41044;BME280;51680;49.806;18.774;2023-05-09T10:16:31;97998.31;;;20.18;37.66
41044;BME280;51680;49.806;18.774;2023-05-09T10:19:34;97998.16;;;19.91;38.58
41044;BME280;51680;49.806;18.774;2023-05-09T10:22:38;98001.38;;;20.23;39.22
41044;BME280;51680;49.806;18.774;2023-05-09T10:25:45;97988.25;;;19.83;40.02
41044;BME280;51680;49.806;18.774;2023-05-09T10:28:48;97992.97;;;20.37;40.38
41044;BME280;51680;49.806;18.774;2023-05-09T10:31:57;97992.84;;;20.65;40.31
41044;BME280;51680;49.806;18.774;2023-05-09T10:35:04;97978.03;;;21.09;40.11
41044;BME280;51680;49.806;18.774;2023-05-09T10:38:06;97963.81;;;21.45;39.11
41044;BME280;51680;49.806;18.774;2023-05-09T10:41:10;97971.09;;;20.98;38.74
41044;BME280;51680;49.806;18.774;2023-05-09T10:44:13;97985.84;;;20.74;39.51
41044;BME280;51680;49.806;18.774;2023-05-09T10:47:15;97976.28;;;20.08;38.84
41044;BME280;51680;49.806;18.774;2023-05-09T10:50:18;97980.63;;;19.61;40.02
41044;BME280;51680;49.806;18.774;2023-05-09T10:53:20;97970.41;;;19.76;40.38
41044;BME280;51680;49.806;18.774;2023-05-09T10:56:28;97972.91;;;19.96;41.26
41044;BME280;51680;49.806;18.774;2023-05-09T10:59:32;97966.91;;;20.23;42.52
41044;BME280;51680;49.806;18.774;2023-05-09T11:02:35;97957.34;;;20.39;41.17
41044;BME280;51680;49.806;18.774;2023-05-09T11:05:38;97960.59;;;20.33;40.05
41044;BME280;51680;49.806;18.774;2023-05-09T11:08:41;97956.47;;;20.12;40.26
41044;BME280;51680;49.806;18.774;2023-05-09T11:11:51;97951.97;;;20.22;39.81
41044;BME280;51680;49.806;18.774;2023-05-09T11:15:03;97960.19;;;20.28;38.83
41044;BME280;51680;49.806;18.774;2023-05-09T11:18:06;97952.72;;;19.57;40.19
41044;BME280;51680;49.806;18.774;2023-05-09T11:21:09;97955.09;;;19.51;41.89
41044;BME280;51680;49.806;18.774;2023-05-09T11:24:17;97948.22;;;18.71;41.95
41044;BME280;51680;49.806;18.774;2023-05-09T11:27:21;97945.25;;;19.04;42.36
41044;BME280;51680;49.806;18.774;2023-05-09T11:30:34;97940.66;;;19.06;41.35
41044;BME280;51680;49.806;18.774;2023-05-09T11:33:37;97931.72;;;18.27;42.23
41044;BME280;51680;49.806;18.774;2023-05-09T11:36:41;97932.19;;;18.33;42.37
41044;BME280;51680;49.806;18.774;2023-05-09T11:39:55;97918.03;;;18.34;42.05
41044;BME280;51680;49.806;18.774;2023-05-09T11:42:59;97904.44;;;18.48;42.83
41044;BME280;51680;49.806;18.774;2023-05-09T11:46:01;97907.13;;;18.27;42.67
41044;BME280;51680;49.806;18.774;2023-05-09T11:49:05;97896.41;;;18.59;42.08
41044;BME280;51680;49.806;18.774;2023-05-09T11:52:07;97897.16;;;18.70;42.21
41044;BME280;51680;49.806;18.774;2023-05-09T11:55:10;97911.44;;;18.58;40.62
41044;BME280;51680;49.806;18.774;2023-05-09T11:58:14;97895.56;;;18.49;42.48
41044;BME280;51680;49.806;18.774;2023-05-09T12:01:16;97887.19;;;18.44;42.20
41044;BME280;51680;49.806;18.774;2023-05-09T12:04:18;97887.66;;;18.68;42.61
41044;BME280;51680;49.806;18.774;2023-05-09T12:07:20;97890.44;;;18.76;42.46
41044;BME280;51680;49.806;18.774;2023-05-09T12:10:22;97872.53;;;18.89;42.49
41044;BME280;51680;49.806;18.774;2023-05-09T12:13:25;97882.47;;;18.47;42.33
41044;BME280;51680;49.806;18.774;2023-05-09T12:16:27;97873.41;;;18.50;41.96
41044;BME280;51680;49.806;18.774;2023-05-09T12:19:29;97876.13;;;18.78;41.81
41044;BME280;51680;49.806;18.774;2023-05-09T12:22:31;97869.19;;;18.87;41.44
41044;BME280;51680;49.806;18.774;2023-05-09T12:25:33;97876.72;;;19.01;41.54
41044;BME280;51680;49.806;18.774;2023-05-09T12:28:36;97861.81;;;18.90;41.53
41044;BME280;51680;49.806;18.774;2023-05-09T12:31:39;97865.44;;;18.40;41.08
41044;BME280;51680;49.806;18.774;2023-05-09T12:34:42;97846.00;;;18.41;42.09
41044;BME280;51680;49.806;18.774;2023-05-09T12:37:54;97853.28;;;18.68;40.50
41044;BME280;51680;49.806;18.774;2023-05-09T12:41:00;97833.25;;;18.84;40.33
41044;BME280;51680;49.806;18.774;2023-05-09T12:44:04;97836.31;;;18.99;41.35
41044;BME280;51680;49.806;18.774;2023-05-09T12:47:06;97834.38;;;19.20;41.08
41044;BME280;51680;49.806;18.774;2023-05-09T12:50:09;97836.06;;;19.40;40.63
41044;BME280;51680;49.806;18.774;2023-05-09T12:53:22;97833.28;;;19.32;38.43
41044;BME280;51680;49.806;18.774;2023-05-09T12:56:24;97822.09;;;19.19;40.16
41044;BME280;51680;49.806;18.774;2023-05-09T12:59:27;97829.91;;;19.20;39.34
41044;BME280;51680;49.806;18.774;2023-05-09T13:02:32;97825.72;;;18.99;39.52
41044;BME280;51680;49.806;18.774;2023-05-09T13:05:35;97812.38;;;18.72;41.30
41044;BME280;51680;49.806;18.774;2023-05-09T13:08:37;97805.81;;;18.85;41.00
41044;BME280;51680;49.806;18.774;2023-05-09T13:11:38;97808.19;;;18.98;41.28
41044;BME280;51680;49.806;18.774;2023-05-09T13:14:41;97820.44;;;19.08;40.24
41044;BME280;51680;49.806;18.774;2023-05-09T13:17:43;97797.59;;;19.17;40.77
41044;BME280;51680;49.806;18.774;2023-05-09T13:20:45;97805.13;;;19.31;40.66
41044;BME280;51680;49.806;18.774;2023-05-09T13:23:47;97791.88;;;19.31;40.33
41044;BME280;51680;49.806;18.774;2023-05-09T13:26:50;97794.53;;;19.31;40.54
41044;BME280;51680;49.806;18.774;2023-05-09T13:29:53;97792.03;;;19.39;40.73
41044;BME280;51680;49.806;18.774;2023-05-09T13:32:55;97779.44;;;19.50;40.45
41044;BME280;51680;49.806;18.774;2023-05-09T13:35:57;97763.78;;;19.57;40.04
41044;BME280;51680;49.806;18.774;2023-05-09T13:38:59;97768.28;;;19.47;39.40
41044;BME280;51680;49.806;18.774;2023-05-09T13:42:01;97758.81;;;19.54;39.91
41044;BME280;51680;49.806;18.774;2023-05-09T13:45:05;97769.22;;;19.55;39.41
41044;BME280;51680;49.806;18.774;2023-05-09T13:48:08;97770.84;;;19.39;40.30
41044;BME280;51680;49.806;18.774;2023-05-09T13:51:11;97774.34;;;19.11;39.48
41044;BME280;51680;49.806;18.774;2023-05-09T13:54:13;97756.66;;;19.02;39.53
41044;BME280;51680;49.806;18.774;2023-05-09T13:57:17;97766.25;;;19.03;39.50
41044;BME280;51680;49.806;18.774;2023-05-09T14:00:21;97766.81;;;19.06;38.60
41044;BME280;51680;49.806;18.774;2023-05-09T14:03:24;97756.38;;;18.95;40.64
41044;BME280;51680;49.806;18.774;2023-05-09T14:06:26;97737.44;;;18.71;40.07
41044;BME280;51680;49.806;18.774;2023-05-09T14:09:28;97727.69;;;18.81;40.59
41044;BME280;51680;49.806;18.774;2023-05-09T14:12:30;97734.22;;;18.96;40.06
41044;BME280;51680;49.806;18.774;2023-05-09T14:15:33;97725.66;;;19.21;39.79
41044;BME280;51680;49.806;18.774;2023-05-09T14:18:35;97718.97;;;19.46;40.27
41044;BME280;51680;49.806;18.774;2023-05-09T14:21:37;97711.91;;;19.64;39.01
41044;BME280;51680;49.806;18.774;2023-05-09T14:24:39;97706.22;;;19.59;39.05
41044;BME280;51680;49.806;18.774;2023-05-09T14:27:41;97720.72;;;18.71;36.65
41044;BME280;51680;49.806;18.774;2023-05-09T14:30:44;97724.88;;;18.25;38.65
41044;BME280;51680;49.806;18.774;2023-05-09T14:33:45;97716.28;;;17.84;36.14
41044;BME280;51680;49.806;18.774;2023-05-09T14:36:47;97717.03;;;18.05;38.05
41044;BME280;51680;49.806;18.774;2023-05-09T14:39:49;97719.56;;;18.25;37.40
41044;BME280;51680;49.806;18.774;2023-05-09T14:42:51;97727.00;;;18.51;38.10
41044;BME280;51680;49.806;18.774;2023-05-09T14:45:54;97720.47;;;18.74;39.51
41044;BME280;51680;49.806;18.774;2023-05-09T14:48:56;97718.38;;;18.87;39.85
41044;BME280;51680;49.806;18.774;2023-05-09T14:52:03;97704.56;;;18.93;40.15
41044;BME280;51680;49.806;18.774;2023-05-09T14:55:05;97698.94;;;19.15;41.62
41044;BME280;51680;49.806;18.774;2023-05-09T14:58:07;97706.81;;;18.88;39.63
41044;BME280;51680;49.806;18.774;2023-05-09T15:01:11;97699.03;;;18.67;38.49
41044;BME280;51680;49.806;18.774;2023-05-09T15:04:13;97697.06;;;18.60;37.85
41044;BME280;51680;49.806;18.774;2023-05-09T15:07:15;97691.94;;;18.68;36.97
41044;BME280;51680;49.806;18.774;2023-05-09T15:10:17;97680.34;;;18.78;37.31
41044;BME280;51680;49.806;18.774;2023-05-09T15:13:19;97685.06;;;19.03;39.16
41044;BME280;51680;49.806;18.774;2023-05-09T15:16:22;97675.28;;;19.04;39.23
41044;BME280;51680;49.806;18.774;2023-05-09T15:19:24;97679.13;;;19.19;38.63
41044;BME280;51680;49.806;18.774;2023-05-09T15:22:30;97661.38;;;18.92;38.94
41044;BME280;51680;49.806;18.774;2023-05-09T15:25:33;97657.50;;;18.87;39.54
41044;BME280;51680;49.806;18.774;2023-05-09T15:28:34;97655.19;;;18.65;38.98
41044;BME280;51680;49.806;18.774;2023-05-09T15:31:38;97672.56;;;18.19;38.29
41044;BME280;51680;49.806;18.774;2023-05-09T15:34:39;97669.16;;;17.98;37.72
41044;BME280;51680;49.806;18.774;2023-05-09T15:37:41;97664.06;;;18.06;39.43
41044;BME280;51680;49.806;18.774;2023-05-09T15:40:44;97661.28;;;18.17;39.69
41044;BME280;51680;49.806;18.774;2023-05-09T15:43:45;97652.09;;;18.12;40.17
41044;BME280;51680;49.806;18.774;2023-05-09T15:46:48;97657.81;;;18.26;40.57
41044;BME280;51680;49.806;18.774;2023-05-09T15:49:50;97655.69;;;18.01;40.98
41044;BME280;51680;49.806;18.774;2023-05-09T15:52:52;97653.88;;;18.02;40.95
41044;BME280;51680;49.806;18.774;2023-05-09T15:55:54;97652.72;;;17.66;41.24
41044;BME280;51680;49.806;18.774;2023-05-09T15:58:57;97645.94;;;17.83;41.45
41044;BME280;51680;49.806;18.774;2023-05-09T16:02:00;97640.25;;;17.87;40.99